Time,TemperatureF,DewpointF,PressureIn,WindDirection,WindDirectionDegrees,WindSpeedMPH,WindSpeedGustMPH,Humidity,HourlyPrecipIn,Conditions,Clouds,dailyrainin,SolarRadiationWatts/m^2,SoftwareType,DateUTC
2013-08-01 00:00:00,64.7,60.1,25.99,SE,130,0.0,0.0,85,0.00,,,0.00,0,Wunderground v.1.15,2013-08-01 06:00:00,
2013-08-01 00:05:00,64.6,60.3,25.99,SE,130,0.0,0.0,86,0.00,,,0.00,0,Wunderground v.1.15,2013-08-01 06:05:00,
2013-08-01 00:10:00,64.6,60.3,25.98,SE,130,0.0,1.0,86,0.00,,,0.00,0,Wunderground v.1.15,2013-08-01 06:10:00,
2013-08-01 00:15:00,64.6,60.0,25.98,SE,130,0.0,1.0,85,0.00,,,0.00,0,Wunderground v.1.15,2013-08-01 06:15:00,
2013-08-01 00:25:00,64.4,59.8,25.98,SE,130,0.0,0.0,85,0.00,,,0.00,0,Wunderground v.1.15,2013-08-01 06:25:00,
2013-08-01 00:30:00,64.2,59.9,25.98,SE,130,0.0,0.0,86,0.00,,,0.00,0,Wunderground v.1.15,2013-08-01 06:30:00,
2013-08-01 00:35:00,64.2,59.9,25.98,SE,130,0.0,0.0,86,0.00,,,0.00,0,Wunderground v.1.15,2013-08-01 06:35:00,
2013-08-01 00:45:00,63.9,60.0,25.97,NNW,342,0.0,2.0,87,0.00,,,0.00,0,Wunderground v.1.15,2013-08-01 06:45:00,
2013-08-01 00:50:00,63.9,60.0,25.97,NNW,342,0.0,0.0,87,0.00,,,0.00,0,Wunderground v.1.15,2013-08-01 06:50:00,
2013-08-01 00:55:00,63.8,59.9,25.97,NNW,342,0.0,0.0,87,0.00,,,0.00,0,Wunderground v.1.15,2013-08-01 06:55:00,
2013-08-01 01:05:00,63.8,60.2,25.96,NNW,342,0.0,0.0,88,0.00,,,0.00,0,Wunderground v.1.15,2013-08-01 07:05:00,
2013-08-01 01:10:00,63.6,60.0,25.96,NNW,342,0.0,0.0,88,0.00,,,0.00,0,Wunderground v.1.15,2013-08-01 07:10:00,
2013-08-01 01:15:00,63.6,60.0,25.95,NNW,342,0.0,0.0,88,0.00,,,0.00,0,Wunderground v.1.15,2013-08-01 07:15:00,
2013-08-01 01:25:00,63.3,60.0,25.95,NNW,342,0.0,0.0,89,0.00,,,0.00,0,Wunderground v.1.15,2013-08-01 07:25:00,
2013-08-01 01:30:00,63.3,60.0,25.95,NNW,342,0.0,0.0,89,0.00,,,0.00,0,Wunderground v.1.15,2013-08-01 07:30:00,
2013-08-01 01:35:00,63.3,60.0,25.94,NNW,342,0.0,0.0,89,0.00,,,0.00,0,Wunderground v.1.15,2013-08-01 07:35:00,
2013-08-01 01:40:00,63.3,60.0,25.95,NNW,342,0.0,0.0,89,0.00,,,0.00,0,Wunderground v.1.15,2013-08-01 07:40:00,
2013-08-01 01:45:00,63.3,60.0,25.94,NNW,342,0.0,0.0,89,0.00,,,0.00,0,Wunderground v.1.15,2013-08-01 07:45:00,
2013-08-01 01:55:00,63.1,59.2,25.94,ENE,76,0.0,0.0,87,0.00,,,0.00,0,Wunderground v.1.15,2013-08-01 07:55:00,
2013-08-01 02:00:00,63.1,59.5,25.94,ENE,76,0.0,0.0,88,0.00,,,0.00,0,Wunderground v.1.15,2013-08-01 08:00:00,
2013-08-01 02:05:00,63.1,59.2,25.94,ENE,76,0.0,0.0,87,0.00,,,0.00,0,Wunderground v.1.15,2013-08-01 08:05:00,
2013-08-01 02:15:00,63.1,59.2,25.94,ENE,76,0.0,1.0,87,0.00,,,0.00,0,Wunderground v.1.15,2013-08-01 08:15:00,
2013-08-01 02:20:00,63.0,59.1,25.93,ENE,76,0.0,0.0,87,0.00,,,0.00,0,Wunderground v.1.15,2013-08-01 08:20:00,
2013-08-01 02:35:00,62.8,58.9,25.94,ENE,76,0.0,0.0,87,0.00,,,0.00,0,Wunderground v.1.15,2013-08-01 08:35:00,
2013-08-01 02:40:00,62.8,58.9,25.94,ENE,76,0.0,0.0,87,0.00,,,0.00,0,Wunderground v.1.15,2013-08-01 08:40:00,
2013-08-01 02:55:00,62.6,58.7,25.93,ENE,76,0.0,0.0,87,0.00,,,0.00,0,Wunderground v.1.15,2013-08-01 08:55:00,
2013-08-01 03:05:00,62.5,58.6,25.93,ENE,76,0.0,0.0,87,0.00,,,0.00,0,Wunderground v.1.15,2013-08-01 09:05:00,
2013-08-01 03:10:00,62.5,58.9,25.93,ENE,76,0.0,0.0,88,0.00,,,0.00,0,Wunderground v.1.15,2013-08-01 09:10:00,
2013-08-01 03:20:00,62.3,59.0,25.93,ENE,76,0.0,0.0,89,0.00,,,0.00,0,Wunderground v.1.15,2013-08-01 09:20:00,
2013-08-01 03:25:00,62.3,59.0,25.93,ENE,76,0.0,0.0,89,0.00,,,0.00,0,Wunderground v.1.15,2013-08-01 09:25:00,
2013-08-01 03:35:00,62.2,59.2,25.94,ENE,76,0.0,0.0,90,0.00,,,0.00,0,Wunderground v.1.15,2013-08-01 09:35:00,
2013-08-01 03:50:00,62.2,58.3,25.93,ENE,76,0.0,0.0,87,0.00,,,0.00,0,Wunderground v.1.15,2013-08-01 09:50:00,
2013-08-01 03:55:00,62.2,58.6,25.93,ENE,76,0.0,0.0,88,0.00,,,0.00,0,Wunderground v.1.15,2013-08-01 09:55:00,
2013-08-01 04:05:00,62.0,58.4,25.94,ENE,76,0.0,0.0,88,0.00,,,0.00,0,Wunderground v.1.15,2013-08-01 10:05:00,
2013-08-01 04:20:00,63.6,58.0,25.94,East,91,3.0,3.0,82,0.00,,,0.00,0,Wunderground v.1.15,2013-08-01 10:20:00,
2013-08-01 04:30:00,64.4,58.8,25.94,East,92,2.0,2.0,82,0.00,,,0.00,0,Wunderground v.1.15,2013-08-01 10:30:00,
2013-08-01 04:35:00,64.4,58.8,25.94,East,97,2.0,2.0,82,0.00,,,0.00,0,Wunderground v.1.15,2013-08-01 10:35:00,
2013-08-01 04:55:00,64.6,58.3,25.96,NW,306,2.0,3.0,80,0.00,,,0.00,0,Wunderground v.1.15,2013-08-01 10:55:00,
2013-08-01 05:05:00,64.9,58.2,25.96,East,80,1.0,2.0,79,0.00,,,0.00,0,Wunderground v.1.15,2013-08-01 11:05:00,
2013-08-01 05:15:00,64.6,58.6,25.96,ESE,111,1.0,2.0,81,0.00,,,0.00,0,Wunderground v.1.15,2013-08-01 11:15:00,
2013-08-01 05:20:00,64.4,58.4,25.96,SE,143,1.0,1.0,81,0.00,,,0.00,0,Wunderground v.1.15,2013-08-01 11:20:00,
2013-08-01 05:45:00,63.8,58.9,25.97,ESE,105,1.0,1.0,84,0.00,,,0.00,21,Wunderground v.1.15,2013-08-01 11:45:00,
2013-08-01 05:50:00,63.8,58.9,25.97,ESE,119,0.0,1.0,84,0.00,,,0.00,28,Wunderground v.1.15,2013-08-01 11:50:00,
2013-08-01 05:55:00,63.8,58.9,25.97,SE,142,1.0,2.0,84,0.00,,,0.00,33,Wunderground v.1.15,2013-08-01 11:55:00,
2013-08-01 06:00:00,63.9,59.0,25.97,SSE,155,2.0,5.0,84,0.00,,,0.00,39,Wunderground v.1.15,2013-08-01 12:00:00,
2013-08-01 06:05:00,64.1,59.2,25.97,SSE,149,2.0,5.0,84,0.00,,,0.00,44,Wunderground v.1.15,2013-08-01 12:05:00,
2013-08-01 06:10:00,64.2,59.3,25.97,SSE,149,2.0,4.0,84,0.00,,,0.00,51,Wunderground v.1.15,2013-08-01 12:10:00,
2013-08-01 06:30:00,65.4,59.8,25.98,ESE,122,2.0,2.0,82,0.00,,,0.00,102,Wunderground v.1.15,2013-08-01 12:30:00,
2013-08-01 06:40:00,65.9,59.6,25.98,ESE,115,2.0,4.0,80,0.00,,,0.00,127,Wunderground v.1.15,2013-08-01 12:40:00,
2013-08-01 06:45:00,66.2,59.8,25.98,SSE,152,2.0,4.0,80,0.00,,,0.00,130,Wunderground v.1.15,2013-08-01 12:45:00,
2013-08-01 06:50:00,66.5,59.8,25.98,SSE,154,2.0,2.0,79,0.00,,,0.00,144,Wunderground v.1.15,2013-08-01 12:50:00,
2013-08-01 07:00:00,67.2,60.1,25.98,SE,134,3.0,3.0,78,0.00,,,0.00,176,Wunderground v.1.15,2013-08-01 13:00:00,
2013-08-01 07:05:00,67.5,60.4,25.97,ESE,119,2.0,4.0,78,0.00,,,0.00,316,Wunderground v.1.15,2013-08-01 13:05:00,
2013-08-01 07:10:00,68.3,60.1,25.97,ESE,105,2.0,2.0,75,0.00,,,0.00,448,Wunderground v.1.15,2013-08-01 13:10:00,
2013-08-01 07:15:00,69.2,60.2,25.97,ESE,104,2.0,4.0,73,0.00,,,0.00,417,Wunderground v.1.15,2013-08-01 13:15:00,
2013-08-01 07:25:00,70.7,60.4,25.98,NE,42,3.0,6.0,70,0.00,,,0.00,360,Wunderground v.1.15,2013-08-01 13:25:00,
2013-08-01 07:30:00,71.0,60.3,25.98,ENE,61,2.0,3.0,69,0.00,,,0.00,323,Wunderground v.1.15,2013-08-01 13:30:00,
2013-08-01 07:35:00,70.8,60.5,25.98,North,350,2.0,4.0,70,0.00,,,0.00,260,Wunderground v.1.15,2013-08-01 13:35:00,
2013-08-01 07:40:00,70.5,60.2,25.98,ESE,103,2.0,2.0,70,0.00,,,0.00,227,Wunderground v.1.15,2013-08-01 13:40:00,
2013-08-01 07:45:00,70.3,60.1,25.98,SSE,153,2.0,2.0,70,0.00,,,0.00,209,Wunderground v.1.15,2013-08-01 13:45:00,
2013-08-01 07:50:00,70.3,60.4,25.98,East,90,1.0,1.0,71,0.00,,,0.00,202,Wunderground v.1.15,2013-08-01 13:50:00,
2013-08-01 08:20:00,69.2,60.2,26.00,NW,304,3.0,3.0,73,0.00,,,0.00,250,Wunderground v.1.15,2013-08-01 14:20:00,
2013-08-01 08:25:00,69.3,59.9,26.00,East,84,3.0,3.0,72,0.00,,,0.00,243,Wunderground v.1.15,2013-08-01 14:25:00,
2013-08-01 08:30:00,69.3,59.1,26.00,East,94,3.0,3.0,70,0.00,,,0.00,243,Wunderground v.1.15,2013-08-01 14:30:00,
2013-08-01 08:40:00,69.7,60.3,26.00,NNE,32,3.0,3.0,72,0.00,,,0.00,165,Wunderground v.1.15,2013-08-01 14:40:00,
2013-08-01 08:45:00,69.8,60.0,26.00,NE,55,2.0,3.0,71,0.00,,,0.00,169,Wunderground v.1.15,2013-08-01 14:45:00,
2013-08-01 08:55:00,69.8,60.4,26.00,ENE,68,1.0,2.0,72,0.00,,,0.00,160,Wunderground v.1.15,2013-08-01 14:55:00,
2013-08-01 09:15:00,69.3,59.5,26.00,East,97,2.0,3.0,71,0.00,,,0.00,105,Wunderground v.1.15,2013-08-01 15:15:00,
2013-08-01 09:20:00,69.5,59.7,26.00,East,97,1.0,1.0,71,0.00,,,0.00,83,Wunderground v.1.15,2013-08-01 15:20:00,
2013-08-01 09:25:00,69.3,59.5,26.00,ESE,106,1.0,1.0,71,0.00,,,0.00,95,Wunderground v.1.15,2013-08-01 15:25:00,
2013-08-01 09:35:00,69.0,59.2,26.00,ESE,123,2.0,2.0,71,0.00,,,0.00,65,Wunderground v.1.15,2013-08-01 15:35:00,
2013-08-01 09:45:00,68.8,59.4,26.00,ESE,121,2.0,2.0,72,0.00,,,0.00,90,Wunderground v.1.15,2013-08-01 15:45:00,
2013-08-01 09:50:00,68.7,59.3,26.00,NNW,347,3.0,3.0,72,0.00,,,0.00,84,Wunderground v.1.15,2013-08-01 15:50:00,
2013-08-01 10:15:00,69.2,60.6,26.00,North,355,2.0,2.0,74,0.00,,,0.00,257,Wunderground v.1.15,2013-08-01 16:15:00,
2013-08-01 10:20:00,69.5,60.5,26.00,NNE,23,2.0,2.0,73,0.00,,,0.00,223,Wunderground v.1.15,2013-08-01 16:20:00,
2013-08-01 10:35:00,69.8,61.1,25.99,ENE,69,3.0,3.0,74,0.00,,,0.00,165,Wunderground v.1.15,2013-08-01 16:35:00,
2013-08-01 10:40:00,70.0,60.9,25.99,SE,130,2.0,4.0,73,0.00,,,0.00,190,Wunderground v.1.15,2013-08-01 16:40:00,
2013-08-01 10:45:00,70.2,61.1,25.99,North,360,3.0,7.0,73,0.00,,,0.00,188,Wunderground v.1.15,2013-08-01 16:45:00,
2013-08-01 10:50:00,70.2,61.1,25.99,West,281,3.0,3.0,73,0.00,,,0.00,207,Wunderground v.1.15,2013-08-01 16:50:00,
2013-08-01 10:55:00,70.3,61.2,25.99,North,360,3.0,3.0,73,0.00,,,0.00,339,Wunderground v.1.15,2013-08-01 16:55:00,
2013-08-01 11:10:00,72.0,61.3,25.98,WSW,255,2.0,2.0,69,0.00,,,0.00,448,Wunderground v.1.15,2013-08-01 17:10:00,
2013-08-01 11:20:00,73.8,61.7,25.98,NE,38,2.0,4.0,66,0.00,,,0.00,656,Wunderground v.1.15,2013-08-01 17:20:00,
2013-08-01 11:25:00,74.1,62.0,25.98,NNW,344,3.0,4.0,66,0.00,,,0.00,459,Wunderground v.1.15,2013-08-01 17:25:00,
2013-08-01 11:40:00,74.1,62.0,25.97,SSE,152,3.0,3.0,66,0.00,,,0.00,162,Wunderground v.1.15,2013-08-01 17:40:00,
2013-08-01 11:50:00,73.6,62.8,25.97,ESE,120,2.0,2.0,69,0.00,,,0.00,216,Wunderground v.1.15,2013-08-01 17:50:00,
2013-08-01 11:55:00,73.4,62.6,25.97,North,355,2.0,4.0,69,0.00,,,0.00,364,Wunderground v.1.15,2013-08-01 17:55:00,
2013-08-01 12:15:00,71.9,62.4,25.97,North,5,4.0,4.0,72,0.00,,,0.00,79,Wunderground v.1.15,2013-08-01 18:15:00,
2013-08-01 12:25:00,70.3,62.7,25.96,ENE,69,4.0,5.0,77,0.00,,,0.00,70,Wunderground v.1.15,2013-08-01 18:25:00,
2013-08-01 12:35:00,69.8,62.6,25.96,NNE,28,2.0,5.0,78,0.00,,,0.00,62,Wunderground v.1.15,2013-08-01 18:35:00,
2013-08-01 12:55:00,67.8,63.5,25.95,NNE,29,4.0,5.0,86,1.24,,,0.17,72,Wunderground v.1.15,2013-08-01 18:55:00,
2013-08-01 13:00:00,67.0,63.3,25.96,NNE,26,4.0,4.0,88,2.02,,,0.31,83,Wunderground v.1.15,2013-08-01 19:00:00,
2013-08-01 13:10:00,66.2,63.5,25.96,NW,320,2.0,4.0,91,3.62,,,0.56,63,Wunderground v.1.15,2013-08-01 19:10:00,
2013-08-01 13:15:00,65.5,62.8,25.95,WNW,300,2.0,4.0,91,0.32,,,0.62,81,Wunderground v.1.15,2013-08-01 19:15:00,
2013-08-01 13:30:00,64.6,61.3,25.95,North,5,3.0,3.0,89,0.05,,,0.64,91,Wunderground v.1.15,2013-08-01 19:30:00,
2013-08-01 13:40:00,64.7,61.4,25.94,SW,221,2.0,2.0,89,0.05,,,0.64,134,Wunderground v.1.15,2013-08-01 19:40:00,
2013-08-01 13:55:00,65.9,61.9,25.94,NNE,32,3.0,4.0,87,0.00,,,0.64,213,Wunderground v.1.15,2013-08-01 19:55:00,
2013-08-01 14:00:00,66.0,61.4,25.93,NNE,26,2.0,3.0,85,0.00,,,0.64,230,Wunderground v.1.15,2013-08-01 20:00:00,
2013-08-01 14:15:00,67.2,61.9,25.92,NE,41,3.0,3.0,83,0.00,,,0.64,232,Wunderground v.1.15,2013-08-01 20:15:00,
2013-08-01 14:20:00,67.5,62.2,25.93,ENE,59,3.0,5.0,83,0.00,,,0.64,279,Wunderground v.1.15,2013-08-01 20:20:00,
2013-08-01 14:25:00,67.7,62.0,25.92,SE,124,3.0,5.0,82,0.00,,,0.64,253,Wunderground v.1.15,2013-08-01 20:25:00,
2013-08-01 14:30:00,68.0,61.9,25.92,NW,313,3.0,4.0,81,0.00,,,0.64,199,Wunderground v.1.15,2013-08-01 20:30:00,
2013-08-01 14:45:00,68.5,62.1,25.92,SSE,157,3.0,4.0,80,0.00,,,0.64,232,Wunderground v.1.15,2013-08-01 20:45:00,
2013-08-01 14:50:00,68.7,61.6,25.92,NNE,17,3.0,5.0,78,0.00,,,0.64,234,Wunderground v.1.15,2013-08-01 20:50:00,
2013-08-01 14:55:00,68.8,61.7,25.92,North,11,4.0,5.0,78,0.00,,,0.64,206,Wunderground v.1.15,2013-08-01 20:55:00,
2013-08-01 15:00:00,69.0,61.9,25.92,NW,306,3.0,4.0,78,0.00,,,0.64,144,Wunderground v.1.15,2013-08-01 21:00:00,
2013-08-01 15:10:00,69.3,61.8,25.91,North,355,4.0,6.0,77,0.00,,,0.64,139,Wunderground v.1.15,2013-08-01 21:10:00,
2013-08-01 15:15:00,69.3,61.8,25.92,East,95,4.0,6.0,77,0.00,,,0.64,179,Wunderground v.1.15,2013-08-01 21:15:00,
2013-08-01 15:20:00,69.5,61.6,25.92,North,5,3.0,3.0,76,0.00,,,0.64,292,Wunderground v.1.15,2013-08-01 21:20:00,
2013-08-01 15:25:00,69.8,61.5,25.92,NE,50,2.0,3.0,75,0.00,,,0.64,229,Wunderground v.1.15,2013-08-01 21:25:00,
2013-08-01 15:35:00,70.2,61.9,25.93,WNW,284,3.0,5.0,75,0.00,,,0.64,113,Wunderground v.1.15,2013-08-01 21:35:00,
2013-08-01 15:40:00,70.0,62.1,25.93,NNW,342,3.0,3.0,76,0.00,,,0.64,104,Wunderground v.1.15,2013-08-01 21:40:00,
2013-08-01 15:45:00,69.7,61.8,25.93,South,180,3.0,3.0,76,0.00,,,0.64,185,Wunderground v.1.15,2013-08-01 21:45:00,
2013-08-01 16:00:00,69.8,61.9,25.93,NNE,15,3.0,3.0,76,0.00,,,0.64,134,Wunderground v.1.15,2013-08-01 22:00:00,
2013-08-01 16:15:00,69.8,61.9,25.94,NW,319,2.0,4.0,76,0.00,,,0.64,86,Wunderground v.1.15,2013-08-01 22:15:00,
2013-08-01 16:20:00,69.7,62.2,25.94,East,86,2.0,3.0,77,0.00,,,0.64,120,Wunderground v.1.15,2013-08-01 22:20:00,
2013-08-01 16:30:00,69.5,62.0,25.94,NW,308,3.0,5.0,77,0.00,,,0.64,141,Wunderground v.1.15,2013-08-01 22:30:00,
2013-08-01 16:45:00,69.2,62.4,25.94,NW,317,3.0,6.0,79,0.00,,,0.64,76,Wunderground v.1.15,2013-08-01 22:45:00,
2013-08-01 16:55:00,69.0,61.9,25.94,NNE,28,3.0,3.0,78,0.00,,,0.64,54,Wunderground v.1.15,2013-08-01 22:55:00,
2013-08-01 17:05:00,69.0,61.5,25.95,East,92,2.0,2.0,77,0.00,,,0.64,33,Wunderground v.1.15,2013-08-01 23:05:00,
2013-08-01 17:10:00,69.0,61.5,25.94,East,93,2.0,2.0,77,0.00,,,0.64,25,Wunderground v.1.15,2013-08-01 23:10:00,
2013-08-01 17:20:00,68.7,61.6,25.94,NNE,20,2.0,2.0,78,0.00,,,0.64,12,Wunderground v.1.15,2013-08-01 23:20:00,
2013-08-01 17:30:00,68.3,61.5,25.95,NNW,345,2.0,2.0,79,0.00,,,0.64,7,Wunderground v.1.15,2013-08-01 23:30:00,
2013-08-01 17:45:00,68.0,61.2,25.95,NNE,31,2.0,4.0,79,0.00,,,0.64,0,Wunderground v.1.15,2013-08-01 23:45:00,
2013-08-01 17:50:00,68.0,61.6,25.95,North,355,2.0,2.0,80,0.00,,,0.64,0,Wunderground v.1.15,2013-08-01 23:50:00,
2013-08-01 18:00:00,67.7,61.3,25.95,NNW,336,2.0,2.0,80,0.00,,,0.64,0,Wunderground v.1.15,2013-08-02 00:00:00,
2013-08-01 18:05:00,67.7,61.3,25.95,NE,55,1.0,2.0,80,0.00,,,0.64,0,Wunderground v.1.15,2013-08-02 00:05:00,
2013-08-01 18:10:00,67.7,61.7,25.95,NE,55,0.0,0.0,81,0.00,,,0.64,0,Wunderground v.1.15,2013-08-02 00:10:00,
2013-08-01 18:20:00,67.7,61.3,25.95,ENE,72,0.0,0.0,80,0.00,,,0.64,0,Wunderground v.1.15,2013-08-02 00:20:00,
2013-08-01 18:25:00,67.7,61.3,25.95,ENE,72,0.0,0.0,80,0.00,,,0.64,0,Wunderground v.1.15,2013-08-02 00:25:00,
2013-08-01 18:45:00,67.7,60.2,25.95,NNE,12,2.0,2.0,77,0.00,,,0.64,0,Wunderground v.1.15,2013-08-02 00:45:00,
2013-08-01 18:50:00,67.7,60.2,25.95,East,95,1.0,1.0,77,0.00,,,0.64,0,Wunderground v.1.15,2013-08-02 00:50:00,
2013-08-01 18:55:00,67.7,60.2,25.95,East,95,0.0,1.0,77,0.00,,,0.64,0,Wunderground v.1.15,2013-08-02 00:55:00,
2013-08-01 19:00:00,67.5,60.4,25.95,East,95,0.0,1.0,78,0.00,,,0.64,0,Wunderground v.1.15,2013-08-02 01:00:00,
2013-08-01 19:05:00,67.5,60.4,25.95,East,101,1.0,1.0,78,0.00,,,0.64,0,Wunderground v.1.15,2013-08-02 01:05:00,
2013-08-01 19:15:00,67.5,59.7,25.95,ENE,76,1.0,1.0,76,0.00,,,0.64,0,Wunderground v.1.15,2013-08-02 01:15:00,
2013-08-01 19:25:00,67.5,57.0,25.95,ESE,103,1.0,3.0,69,0.00,,,0.64,0,Wunderground v.1.15,2013-08-02 01:25:00,
2013-08-01 19:30:00,67.8,56.9,25.95,NNW,340,1.0,1.0,68,0.00,,,0.64,0,Wunderground v.1.15,2013-08-02 01:30:00,
2013-08-01 19:35:00,68.2,57.2,25.95,East,86,1.0,1.0,68,0.00,,,0.64,0,Wunderground v.1.15,2013-08-02 01:35:00,
2013-08-01 19:45:00,68.2,58.0,25.95,East,97,0.0,1.0,70,0.00,,,0.64,0,Wunderground v.1.15,2013-08-02 01:45:00,
2013-08-01 19:50:00,68.0,57.8,25.95,East,97,0.0,0.0,70,0.00,,,0.64,0,Wunderground v.1.15,2013-08-02 01:50:00,
2013-08-01 19:55:00,67.8,58.1,25.95,West,273,0.0,0.0,71,0.00,,,0.64,0,Wunderground v.1.15,2013-08-02 01:55:00,
2013-08-01 20:05:00,67.2,57.5,25.96,West,273,0.0,0.0,71,0.00,,,0.64,0,Wunderground v.1.15,2013-08-02 02:05:00,
2013-08-01 20:20:00,67.2,59.4,25.97,West,273,0.0,1.0,76,0.00,,,0.64,0,Wunderground v.1.15,2013-08-02 02:20:00,
2013-08-01 20:30:00,67.2,58.6,25.97,North,5,0.0,0.0,74,0.00,,,0.64,0,Wunderground v.1.15,2013-08-02 02:30:00,
2013-08-01 20:40:00,67.2,58.6,25.97,North,5,0.0,0.0,74,0.00,,,0.64,0,Wunderground v.1.15,2013-08-02 02:40:00,
2013-08-01 20:45:00,67.2,59.4,25.97,North,5,0.0,0.0,76,0.00,,,0.64,0,Wunderground v.1.15,2013-08-02 02:45:00,
2013-08-01 20:55:00,66.8,57.5,25.96,ENE,61,0.0,1.0,72,0.00,,,0.64,0,Wunderground v.1.15,2013-08-02 02:55:00,
2013-08-01 21:05:00,67.2,58.6,25.97,ENE,60,0.0,1.0,74,0.00,,,0.64,0,Wunderground v.1.15,2013-08-02 03:05:00,
2013-08-01 21:10:00,67.0,58.8,25.97,ENE,61,0.0,0.0,75,0.00,,,0.64,0,Wunderground v.1.15,2013-08-02 03:10:00,
2013-08-01 21:15:00,66.8,58.6,25.97,NNW,336,0.0,2.0,75,0.00,,,0.64,0,Wunderground v.1.15,2013-08-02 03:15:00,
2013-08-01 21:40:00,66.3,59.2,25.97,NE,40,1.0,2.0,78,0.00,,,0.64,0,Wunderground v.1.15,2013-08-02 03:40:00,
2013-08-01 21:45:00,66.2,59.5,25.98,North,11,2.0,2.0,79,0.00,,,0.64,0,Wunderground v.1.15,2013-08-02 03:45:00,
2013-08-01 21:55:00,65.9,59.9,25.98,North,360,1.0,2.0,81,0.00,,,0.64,0,Wunderground v.1.15,2013-08-02 03:55:00,
2013-08-01 22:05:00,65.7,60.4,25.98,NW,306,1.0,1.0,83,0.00,,,0.64,0,Wunderground v.1.15,2013-08-02 04:05:00,
2013-08-01 22:10:00,65.5,60.2,25.98,West,279,1.0,1.0,83,0.00,,,0.64,0,Wunderground v.1.15,2013-08-02 04:10:00,
2013-08-01 22:15:00,65.4,60.1,25.98,West,279,1.0,1.0,83,0.00,,,0.64,0,Wunderground v.1.15,2013-08-02 04:15:00,
2013-08-01 22:20:00,65.4,60.4,25.98,West,279,1.0,1.0,84,0.00,,,0.64,0,Wunderground v.1.15,2013-08-02 04:20:00,
2013-08-01 22:30:00,65.2,60.9,25.98,West,279,0.0,0.0,86,0.00,,,0.64,0,Wunderground v.1.15,2013-08-02 04:30:00,
2013-08-01 22:35:00,65.2,60.9,25.99,West,279,0.0,0.0,86,0.00,,,0.64,0,Wunderground v.1.15,2013-08-02 04:35:00,
2013-08-01 22:40:00,65.1,61.1,25.99,West,279,0.0,0.0,87,0.00,,,0.64,0,Wunderground v.1.15,2013-08-02 04:40:00,
2013-08-01 22:45:00,65.1,61.1,25.99,West,279,0.0,0.0,87,0.00,,,0.64,0,Wunderground v.1.15,2013-08-02 04:45:00,
2013-08-01 22:50:00,65.1,61.5,25.99,WNW,293,0.0,0.0,88,0.00,,,0.64,0,Wunderground v.1.15,2013-08-02 04:50:00,
2013-08-01 23:00:00,65.2,61.6,25.99,WNW,293,0.0,0.0,88,0.00,,,0.64,0,Wunderground v.1.15,2013-08-02 05:00:00,
2013-08-01 23:05:00,64.9,60.6,25.99,East,91,0.0,0.0,86,0.00,,,0.64,0,Wunderground v.1.15,2013-08-02 05:05:00,
2013-08-01 23:10:00,64.7,60.1,25.99,SE,126,1.0,1.0,85,0.00,,,0.64,0,Wunderground v.1.15,2013-08-02 05:10:00,
2013-08-01 23:15:00,64.6,60.3,25.99,SE,132,2.0,4.0,86,0.00,,,0.64,0,Wunderground v.1.15,2013-08-02 05:15:00,
2013-08-01 23:25:00,63.9,59.3,25.99,East,89,3.0,3.0,85,0.00,,,0.64,0,Wunderground v.1.15,2013-08-02 05:25:00,
2013-08-01 23:30:00,63.8,59.2,25.99,East,86,2.0,2.0,85,0.00,,,0.64,0,Wunderground v.1.15,2013-08-02 05:30:00,
2013-08-01 23:40:00,63.6,58.7,25.98,NE,54,2.0,2.0,84,0.00,,,0.64,0,Wunderground v.1.15,2013-08-02 05:40:00,
2013-08-01 23:45:00,63.6,58.3,25.98,East,99,2.0,4.0,83,0.00,,,0.64,0,Wunderground v.1.15,2013-08-02 05:45:00,
2013-08-01 23:55:00,63.8,58.5,25.98,ESE,117,3.0,4.0,83,0.00,,,0.64,0,Wunderground v.1.15,2013-08-02 05:55:00,